sensor_id;sensor_type;location;lat;lon;timestamp;pressure;altitude;pressure_sealevel;temperature;humidity
63903;BME280;50072;50.678;13.938;2022-09-09T00:05:23;99280.78;;;11.14;100.00
63903;BME280;50072;50.678;13.938;2022-09-09T00:08:03;99279.25;;;11.07;100.00
63903;BME280;50072;50.678;13.938;2022-09-09T00:10:38;99277.56;;;11.04;100.00
63903;BME280;50072;50.678;13.938;2022-09-09T00:13:26;99266.19;;;10.98;100.00
63903;BME280;50072;50.678;13.938;2022-09-09T00:19:16;99263.72;;;10.92;100.00
63903;BME280;50072;50.678;13.938;2022-09-09T00:21:53;99267.94;;;10.99;100.00
63903;BME280;50072;50.678;13.938;2022-09-09T00:24:48;99267.97;;;10.97;100.00
63903;BME280;50072;50.678;13.938;2022-09-09T00:27:31;99266.88;;;11.04;100.00
63903;BME280;50072;50.678;13.938;2022-09-09T00:32:50;99266.38;;;11.18;100.00
63903;BME280;50072;50.678;13.938;2022-09-09T00:35:27;99262.66;;;11.22;100.00
63903;BME280;50072;50.678;13.938;2022-09-09T00:38:01;99264.31;;;11.27;100.00
63903;BME280;50072;50.678;13.938;2022-09-09T00:40:55;99269.56;;;11.30;100.00
63903;BME280;50072;50.678;13.938;2022-09-09T00:46:32;99269.88;;;11.20;100.00
63903;BME280;50072;50.678;13.938;2022-09-09T00:55:07;99274.28;;;11.23;100.00
63903;BME280;50072;50.678;13.938;2022-09-09T00:57:50;99256.50;;;11.20;100.00
63903;BME280;50072;50.678;13.938;2022-09-09T01:05:41;99271.13;;;11.10;99.54
63903;BME280;50072;50.678;13.938;2022-09-09T01:08:35;99273.59;;;11.16;100.00
63903;BME280;50072;50.678;13.938;2022-09-09T01:16:47;99278.44;;;11.32;100.00
63903;BME280;50072;50.678;13.938;2022-09-09T01:22:33;99291.59;;;11.38;100.00
63903;BME280;50072;50.678;13.938;2022-09-09T01:27:49;99293.19;;;11.44;100.00
63903;BME280;50072;50.678;13.938;2022-09-09T01:30:20;99290.41;;;11.47;100.00
63903;BME280;50072;50.678;13.938;2022-09-09T01:32:52;99297.38;;;11.52;100.00
63903;BME280;50072;50.678;13.938;2022-09-09T01:35:42;99298.16;;;11.56;100.00
63903;BME280;50072;50.678;13.938;2022-09-09T01:38:17;99290.06;;;11.57;100.00
63903;BME280;50072;50.678;13.938;2022-09-09T01:40:51;99277.78;;;11.50;100.00
63903;BME280;50072;50.678;13.938;2022-09-09T01:43:21;99291.03;;;11.55;100.00
63903;BME280;50072;50.678;13.938;2022-09-09T01:45:53;99285.88;;;11.49;100.00
63903;BME280;50072;50.678;13.938;2022-09-09T01:48:22;99282.38;;;11.47;100.00
63903;BME280;50072;50.678;13.938;2022-09-09T01:50:50;99283.34;;;11.44;100.00
63903;BME280;50072;50.678;13.938;2022-09-09T01:53:18;99284.38;;;11.40;100.00
63903;BME280;50072;50.678;13.938;2022-09-09T01:55:55;99289.84;;;11.37;100.00
63903;BME280;50072;50.678;13.938;2022-09-09T01:58:57;99282.84;;;11.33;100.00
63903;BME280;50072;50.678;13.938;2022-09-09T02:09:55;99281.84;;;11.10;100.00
63903;BME280;50072;50.678;13.938;2022-09-09T02:12:29;99283.06;;;11.00;99.08
63903;BME280;50072;50.678;13.938;2022-09-09T02:15:04;99285.25;;;10.87;98.16
63903;BME280;50072;50.678;13.938;2022-09-09T02:17:36;99291.75;;;10.80;99.05
63903;BME280;50072;50.678;13.938;2022-09-09T02:20:18;99288.31;;;10.76;100.00
63903;BME280;50072;50.678;13.938;2022-09-09T02:22:49;99282.09;;;10.74;100.00
63903;BME280;50072;50.678;13.938;2022-09-09T02:25:18;99277.16;;;10.62;100.00
63903;BME280;50072;50.678;13.938;2022-09-09T02:27:46;99273.75;;;10.57;100.00
63903;BME280;50072;50.678;13.938;2022-09-09T02:30:22;99279.38;;;10.47;100.00
63903;BME280;50072;50.678;13.938;2022-09-09T02:32:52;99272.28;;;10.46;100.00
63903;BME280;50072;50.678;13.938;2022-09-09T02:35:29;99284.66;;;10.50;100.00
63903;BME280;50072;50.678;13.938;2022-09-09T02:38:13;99283.53;;;10.58;100.00
63903;BME280;50072;50.678;13.938;2022-09-09T02:40:50;99277.06;;;10.65;100.00
63903;BME280;50072;50.678;13.938;2022-09-09T02:43:19;99285.91;;;10.67;100.00
63903;BME280;50072;50.678;13.938;2022-09-09T02:49:15;99288.25;;;10.78;100.00
63903;BME280;50072;50.678;13.938;2022-09-09T02:52:18;99285.41;;;10.82;100.00
63903;BME280;50072;50.678;13.938;2022-09-09T02:54:57;99276.47;;;10.83;100.00
63903;BME280;50072;50.678;13.938;2022-09-09T02:57:34;99269.34;;;10.82;100.00
63903;BME280;50072;50.678;13.938;2022-09-09T03:00:00;99281.63;;;10.90;100.00
63903;BME280;50072;50.678;13.938;2022-09-09T03:02:32;99280.69;;;10.91;100.00
63903;BME280;50072;50.678;13.938;2022-09-09T03:05:20;99287.50;;;11.01;100.00
63903;BME280;50072;50.678;13.938;2022-09-09T03:07:52;99278.53;;;11.02;100.00
63903;BME280;50072;50.678;13.938;2022-09-09T03:10:18;99289.97;;;11.07;100.00
63903;BME280;50072;50.678;13.938;2022-09-09T03:12:50;99295.31;;;11.07;100.00
63903;BME280;50072;50.678;13.938;2022-09-09T03:15:19;99286.75;;;10.96;100.00
63903;BME280;50072;50.678;13.938;2022-09-09T03:17:51;99290.66;;;10.85;100.00
63903;BME280;50072;50.678;13.938;2022-09-09T03:20:18;99283.56;;;10.84;100.00
63903;BME280;50072;50.678;13.938;2022-09-09T03:22:44;99295.84;;;10.92;100.00
63903;BME280;50072;50.678;13.938;2022-09-09T03:25:20;99299.28;;;10.95;100.00
63903;BME280;50072;50.678;13.938;2022-09-09T03:27:50;99300.06;;;10.99;100.00
63903;BME280;50072;50.678;13.938;2022-09-09T03:30:26;99299.00;;;11.03;100.00
63903;BME280;50072;50.678;13.938;2022-09-09T03:33:02;99299.81;;;11.07;100.00
63903;BME280;50072;50.678;13.938;2022-09-09T03:35:39;99298.88;;;11.08;100.00
63903;BME280;50072;50.678;13.938;2022-09-09T03:38:12;99293.47;;;11.09;100.00
63903;BME280;50072;50.678;13.938;2022-09-09T03:40:39;99300.50;;;11.13;100.00
63903;BME280;50072;50.678;13.938;2022-09-09T03:43:06;99296.78;;;11.17;100.00
63903;BME280;50072;50.678;13.938;2022-09-09T03:45:38;99298.41;;;11.21;100.00
63903;BME280;50072;50.678;13.938;2022-09-09T03:48:06;99297.44;;;11.24;100.00
63903;BME280;50072;50.678;13.938;2022-09-09T03:50:32;99301.94;;;11.23;100.00
63903;BME280;50072;50.678;13.938;2022-09-09T03:52:58;99302.69;;;11.27;100.00
63903;BME280;50072;50.678;13.938;2022-09-09T03:55:32;99308.81;;;11.31;100.00
63903;BME280;50072;50.678;13.938;2022-09-09T03:58:20;99308.72;;;11.34;100.00
63903;BME280;50072;50.678;13.938;2022-09-09T04:00:59;99305.06;;;11.36;100.00
63903;BME280;50072;50.678;13.938;2022-09-09T04:03:26;99311.22;;;11.38;100.00
63903;BME280;50072;50.678;13.938;2022-09-09T04:05:53;99301.41;;;11.39;100.00
63903;BME280;50072;50.678;13.938;2022-09-09T04:08:21;99303.25;;;11.37;100.00
63903;BME280;50072;50.678;13.938;2022-09-09T04:10:49;99301.47;;;11.37;100.00
63903;BME280;50072;50.678;13.938;2022-09-09T04:13:17;99300.56;;;11.37;100.00
63903;BME280;50072;50.678;13.938;2022-09-09T04:15:58;99303.25;;;11.37;100.00
63903;BME280;50072;50.678;13.938;2022-09-09T04:18:43;99308.50;;;11.40;100.00
63903;BME280;50072;50.678;13.938;2022-09-09T04:21:10;99303.97;;;11.42;100.00
63903;BME280;50072;50.678;13.938;2022-09-09T04:23:41;99300.44;;;11.42;100.00
63903;BME280;50072;50.678;13.938;2022-09-09T04:26:08;99292.28;;;11.45;100.00
63903;BME280;50072;50.678;13.938;2022-09-09T04:28:36;99296.69;;;11.46;100.00
63903;BME280;50072;50.678;13.938;2022-09-09T04:31:15;99294.00;;;11.47;100.00
63903;BME280;50072;50.678;13.938;2022-09-09T04:33:42;99296.56;;;11.50;100.00
63903;BME280;50072;50.678;13.938;2022-09-09T04:36:08;99296.66;;;11.47;100.00
63903;BME280;50072;50.678;13.938;2022-09-09T04:38:34;99304.78;;;11.44;100.00
63903;BME280;50072;50.678;13.938;2022-09-09T04:41:01;99303.06;;;11.43;100.00
63903;BME280;50072;50.678;13.938;2022-09-09T04:43:28;99300.31;;;11.45;100.00
63903;BME280;50072;50.678;13.938;2022-09-09T04:46:00;99301.19;;;11.45;100.00
63903;BME280;50072;50.678;13.938;2022-09-09T04:48:26;99300.25;;;11.46;100.00
63903;BME280;50072;50.678;13.938;2022-09-09T04:51:00;99306.38;;;11.50;100.00
63903;BME280;50072;50.678;13.938;2022-09-09T04:53:27;99310.88;;;11.49;100.00
63903;BME280;50072;50.678;13.938;2022-09-09T04:56:01;99300.97;;;11.51;100.00
63903;BME280;50072;50.678;13.938;2022-09-09T04:58:28;99312.53;;;11.53;100.00
63903;BME280;50072;50.678;13.938;2022-09-09T05:00:54;99311.59;;;11.54;100.00
63903;BME280;50072;50.678;13.938;2022-09-09T05:03:20;99312.41;;;11.56;100.00
63903;BME280;50072;50.678;13.938;2022-09-09T05:05:47;99320.34;;;11.60;100.00
63903;BME280;50072;50.678;13.938;2022-09-09T05:08:13;99332.09;;;11.55;100.00
63903;BME280;50072;50.678;13.938;2022-09-09T05:10:40;99338.47;;;11.51;100.00
63903;BME280;50072;50.678;13.938;2022-09-09T05:13:07;99331.69;;;11.41;100.00
63903;BME280;50072;50.678;13.938;2022-09-09T05:15:33;99335.22;;;11.43;100.00
63903;BME280;50072;50.678;13.938;2022-09-09T05:18:05;99327.97;;;11.45;100.00
63903;BME280;50072;50.678;13.938;2022-09-09T05:20:31;99320.72;;;11.49;100.00
63903;BME280;50072;50.678;13.938;2022-09-09T05:23:02;99325.81;;;11.56;100.00
63903;BME280;50072;50.678;13.938;2022-09-09T05:25:28;99335.50;;;11.61;100.00
63903;BME280;50072;50.678;13.938;2022-09-09T05:28:20;99340.03;;;11.58;100.00
63903;BME280;50072;50.678;13.938;2022-09-09T05:30:59;99342.56;;;11.63;100.00
63903;BME280;50072;50.678;13.938;2022-09-09T05:33:32;99335.44;;;11.62;100.00
63903;BME280;50072;50.678;13.938;2022-09-09T05:36:04;99349.34;;;11.73;100.00
63903;BME280;50072;50.678;13.938;2022-09-09T05:38:32;99353.63;;;11.79;100.00
63903;BME280;50072;50.678;13.938;2022-09-09T05:41:14;99357.16;;;11.80;100.00
63903;BME280;50072;50.678;13.938;2022-09-09T05:43:44;99358.06;;;11.80;100.00
63903;BME280;50072;50.678;13.938;2022-09-09T05:46:12;99354.47;;;11.80;100.00
63903;BME280;50072;50.678;13.938;2022-09-09T05:48:51;99360.75;;;11.80;100.00
63903;BME280;50072;50.678;13.938;2022-09-09T05:51:24;99367.75;;;11.84;100.00
63903;BME280;50072;50.678;13.938;2022-09-09T05:54:04;99371.34;;;11.83;100.00
63903;BME280;50072;50.678;13.938;2022-09-09T05:56:32;99372.91;;;11.90;100.00
63903;BME280;50072;50.678;13.938;2022-09-09T05:59:19;99366.47;;;11.96;100.00
63903;BME280;50072;50.678;13.938;2022-09-09T06:01:51;99369.81;;;12.03;100.00
63903;BME280;50072;50.678;13.938;2022-09-09T06:04:20;99361.31;;;12.15;100.00
63903;BME280;50072;50.678;13.938;2022-09-09T06:06:50;99364.47;;;12.26;100.00
63903;BME280;50072;50.678;13.938;2022-09-09T06:09:19;99363.09;;;12.40;100.00
63903;BME280;50072;50.678;13.938;2022-09-09T06:11:51;99360.19;;;12.46;100.00
63903;BME280;50072;50.678;13.938;2022-09-09T06:14:17;99366.00;;;12.57;99.87
63903;BME280;50072;50.678;13.938;2022-09-09T06:16:45;99359.28;;;12.69;99.69
63903;BME280;50072;50.678;13.938;2022-09-09T06:19:17;99357.63;;;12.89;100.00
63903;BME280;50072;50.678;13.938;2022-09-09T06:21:50;99356.84;;;13.09;100.00
63903;BME280;50072;50.678;13.938;2022-09-09T06:24:20;99342.28;;;13.15;99.36
63903;BME280;50072;50.678;13.938;2022-09-09T06:26:51;99351.19;;;13.39;99.14
63903;BME280;50072;50.678;13.938;2022-09-09T06:29:20;99347.91;;;13.53;98.52
63903;BME280;50072;50.678;13.938;2022-09-09T06:31:46;99338.84;;;13.55;97.58
63903;BME280;50072;50.678;13.938;2022-09-09T06:34:20;99354.78;;;13.60;97.10
63903;BME280;50072;50.678;13.938;2022-09-09T06:36:52;99342.53;;;13.53;96.16
63903;BME280;50072;50.678;13.938;2022-09-09T06:39:20;99351.13;;;13.61;96.35
63903;BME280;50072;50.678;13.938;2022-09-09T06:41:52;99340.00;;;13.70;96.76
63903;BME280;50072;50.678;13.938;2022-09-09T06:44:20;99351.50;;;13.74;96.42
63903;BME280;50072;50.678;13.938;2022-09-09T06:46:46;99350.53;;;13.75;94.36
63903;BME280;50072;50.678;13.938;2022-09-09T06:49:15;99352.28;;;13.76;95.59
63903;BME280;50072;50.678;13.938;2022-09-09T06:51:50;99356.13;;;13.70;96.33
63903;BME280;50072;50.678;13.938;2022-09-09T06:54:20;99333.84;;;13.67;96.81
63903;BME280;50072;50.678;13.938;2022-09-09T06:56:50;99350.34;;;13.79;96.52
63903;BME280;50072;50.678;13.938;2022-09-09T06:59:21;99342.09;;;13.84;95.83
63903;BME280;50072;50.678;13.938;2022-09-09T07:01:47;99338.91;;;13.95;95.97
63903;BME280;50072;50.678;13.938;2022-09-09T07:04:20;99331.84;;;14.13;96.37
63903;BME280;50072;50.678;13.938;2022-09-09T07:06:51;99340.16;;;14.27;95.82
63903;BME280;50072;50.678;13.938;2022-09-09T07:09:20;99327.69;;;14.45;96.02
63903;BME280;50072;50.678;13.938;2022-09-09T07:11:50;99333.09;;;14.64;94.29
63903;BME280;50072;50.678;13.938;2022-09-09T07:14:20;99334.41;;;14.75;93.20
63903;BME280;50072;50.678;13.938;2022-09-09T07:16:47;99333.53;;;14.74;93.97
63903;BME280;50072;50.678;13.938;2022-09-09T07:19:20;99330.19;;;14.69;93.36
63903;BME280;50072;50.678;13.938;2022-09-09T07:21:49;99330.09;;;14.90;93.62
63903;BME280;50072;50.678;13.938;2022-09-09T07:24:17;99335.53;;;15.07;93.34
63903;BME280;50072;50.678;13.938;2022-09-09T07:26:50;99331.25;;;15.03;92.01
63903;BME280;50072;50.678;13.938;2022-09-09T07:29:17;99337.06;;;15.13;91.02
63903;BME280;50072;50.678;13.938;2022-09-09T07:31:43;99339.25;;;15.41;90.88
63903;BME280;50072;50.678;13.938;2022-09-09T07:34:20;99342.78;;;15.78;89.21
63903;BME280;50072;50.678;13.938;2022-09-09T07:36:50;99336.44;;;15.97;90.04
63903;BME280;50072;50.678;13.938;2022-09-09T07:39:18;99328.44;;;15.95;89.67
63903;BME280;50072;50.678;13.938;2022-09-09T07:41:50;99334.53;;;15.99;89.57
63903;BME280;50072;50.678;13.938;2022-09-09T07:44:22;99344.94;;;16.07;89.60
63903;BME280;50072;50.678;13.938;2022-09-09T07:46:49;99345.63;;;16.10;88.72
63903;BME280;50072;50.678;13.938;2022-09-09T07:49:19;99348.75;;;16.36;87.17
63903;BME280;50072;50.678;13.938;2022-09-09T07:51:51;99346.63;;;17.24;85.12
63903;BME280;50072;50.678;13.938;2022-09-09T07:54:19;99345.97;;;17.97;83.75
63903;BME280;50072;50.678;13.938;2022-09-09T07:56:50;99345.31;;;18.51;79.89
63903;BME280;50072;50.678;13.938;2022-09-09T07:59:22;99351.75;;;19.21;79.26
63903;BME280;50072;50.678;13.938;2022-09-09T08:01:51;99355.16;;;19.92;77.07
63903;BME280;50072;50.678;13.938;2022-09-09T08:04:21;99351.06;;;20.25;72.83
63903;BME280;50072;50.678;13.938;2022-09-09T08:06:58;99358.97;;;19.62;70.83
63903;BME280;50072;50.678;13.938;2022-09-09T08:09:32;99360.00;;;19.19;72.77
63903;BME280;50072;50.678;13.938;2022-09-09T08:12:05;99355.72;;;19.15;72.01
63903;BME280;50072;50.678;13.938;2022-09-09T08:14:33;99369.31;;;19.01;75.25
63903;BME280;50072;50.678;13.938;2022-09-09T08:17:02;99361.50;;;18.96;73.58
63903;BME280;50072;50.678;13.938;2022-09-09T08:19:30;99354.56;;;19.46;72.79
63903;BME280;50072;50.678;13.938;2022-09-09T08:21:59;99368.50;;;20.86;68.41
63903;BME280;50072;50.678;13.938;2022-09-09T08:24:28;99355.78;;;21.11;64.55
63903;BME280;50072;50.678;13.938;2022-09-09T08:26:54;99361.97;;;21.75;63.56
63903;BME280;50072;50.678;13.938;2022-09-09T08:29:22;99365.50;;;22.23;63.02
63903;BME280;50072;50.678;13.938;2022-09-09T08:31:56;99367.47;;;22.21;63.86
63903;BME280;50072;50.678;13.938;2022-09-09T08:34:24;99370.28;;;22.09;57.60
63903;BME280;50072;50.678;13.938;2022-09-09T08:36:52;99365.56;;;21.99;62.22
63903;BME280;50072;50.678;13.938;2022-09-09T08:39:20;99365.19;;;22.04;61.76
63903;BME280;50072;50.678;13.938;2022-09-09T08:47:13;99363.25;;;21.58;61.21
63903;BME280;50072;50.678;13.938;2022-09-09T08:52:16;99353.88;;;21.62;62.59
63903;BME280;50072;50.678;13.938;2022-09-09T08:54:44;99357.19;;;22.25;61.30
63903;BME280;50072;50.678;13.938;2022-09-09T08:57:21;99358.94;;;22.26;61.02
63903;BME280;50072;50.678;13.938;2022-09-09T08:59:52;99360.50;;;22.17;58.44
63903;BME280;50072;50.678;13.938;2022-09-09T09:02:46;99366.53;;;22.34;58.66
63903;BME280;50072;50.678;13.938;2022-09-09T09:13:02;99355.38;;;25.97;50.53
63903;BME280;50072;50.678;13.938;2022-09-09T09:15:36;99352.38;;;26.00;48.92
63903;BME280;50072;50.678;13.938;2022-09-09T09:18:07;99348.06;;;27.30;48.21
63903;BME280;50072;50.678;13.938;2022-09-09T09:23:26;99339.25;;;27.54;43.56
63903;BME280;50072;50.678;13.938;2022-09-09T09:25:59;99344.41;;;28.30;42.67
63903;BME280;50072;50.678;13.938;2022-09-09T09:28:31;99345.94;;;28.24;39.90
63903;BME280;50072;50.678;13.938;2022-09-09T09:31:10;99340.00;;;28.11;43.23
63903;BME280;50072;50.678;13.938;2022-09-09T09:33:50;99326.28;;;28.71;42.05
63903;BME280;50072;50.678;13.938;2022-09-09T09:36:19;99325.22;;;28.64;44.16
63903;BME280;50072;50.678;13.938;2022-09-09T09:38:59;99321.78;;;28.62;40.29
63903;BME280;50072;50.678;13.938;2022-09-09T09:44:03;99321.53;;;28.82;41.82
63903;BME280;50072;50.678;13.938;2022-09-09T09:46:30;99325.88;;;29.27;42.08
63903;BME280;50072;50.678;13.938;2022-09-09T09:49:03;99324.78;;;30.28;41.16
63903;BME280;50072;50.678;13.938;2022-09-09T09:51:32;99310.72;;;30.79;38.20
63903;BME280;50072;50.678;13.938;2022-09-09T09:56:40;99322.56;;;31.91;37.58
63903;BME280;50072;50.678;13.938;2022-09-09T10:01:47;99299.47;;;31.29;35.42
63903;BME280;50072;50.678;13.938;2022-09-09T10:04:19;99309.75;;;32.36;36.48
63903;BME280;50072;50.678;13.938;2022-09-09T10:06:46;99311.38;;;33.35;35.35
63903;BME280;50072;50.678;13.938;2022-09-09T10:09:38;99307.97;;;33.03;35.87
63903;BME280;50072;50.678;13.938;2022-09-09T10:18:08;99308.88;;;32.12;33.44
63903;BME280;50072;50.678;13.938;2022-09-09T10:26:29;99308.00;;;31.42;36.38
63903;BME280;50072;50.678;13.938;2022-09-09T10:29:28;99303.81;;;32.39;34.12
63903;BME280;50072;50.678;13.938;2022-09-09T10:32:07;99299.84;;;33.01;34.80
63903;BME280;50072;50.678;13.938;2022-09-09T10:37:08;99296.06;;;33.39;33.91
63903;BME280;50072;50.678;13.938;2022-09-09T10:39:43;99294.50;;;33.51;34.33
63903;BME280;50072;50.678;13.938;2022-09-09T10:42:12;99285.16;;;33.37;33.26
63903;BME280;50072;50.678;13.938;2022-09-09T10:47:23;99268.97;;;32.30;34.75
63903;BME280;50072;50.678;13.938;2022-09-09T10:50:04;99276.22;;;32.08;35.88
63903;BME280;50072;50.678;13.938;2022-09-09T10:55:26;99270.06;;;31.59;34.35
63903;BME280;50072;50.678;13.938;2022-09-09T10:57:58;99263.75;;;30.79;35.84
63903;BME280;50072;50.678;13.938;2022-09-09T11:00:31;99270.38;;;30.62;35.94
63903;BME280;50072;50.678;13.938;2022-09-09T11:03:03;99257.72;;;30.76;36.11
63903;BME280;50072;50.678;13.938;2022-09-09T11:05:46;99259.59;;;29.70;37.68
63903;BME280;50072;50.678;13.938;2022-09-09T11:08:23;99261.38;;;29.87;38.23
63903;BME280;50072;50.678;13.938;2022-09-09T11:11:02;99262.31;;;28.86;39.54
63903;BME280;50072;50.678;13.938;2022-09-09T11:13:34;99260.09;;;29.57;39.34
63903;BME280;50072;50.678;13.938;2022-09-09T11:22:03;99258.75;;;29.94;38.99
63903;BME280;50072;50.678;13.938;2022-09-09T11:24:45;99256.44;;;30.39;38.55
63903;BME280;50072;50.678;13.938;2022-09-09T11:33:08;99254.88;;;29.21;37.40
63903;BME280;50072;50.678;13.938;2022-09-09T11:35:55;99242.53;;;29.50;37.04
63903;BME280;50072;50.678;13.938;2022-09-09T11:41:39;99231.91;;;29.04;39.08
63903;BME280;50072;50.678;13.938;2022-09-09T11:44:12;99233.56;;;29.81;39.09
63903;BME280;50072;50.678;13.938;2022-09-09T11:46:46;99226.47;;;30.19;37.74
63903;BME280;50072;50.678;13.938;2022-09-09T11:49:40;99223.66;;;30.84;36.45
63903;BME280;50072;50.678;13.938;2022-09-09T11:52:35;99226.53;;;31.53;36.55
63903;BME280;50072;50.678;13.938;2022-09-09T11:55:23;99220.78;;;32.01;34.33
63903;BME280;50072;50.678;13.938;2022-09-09T11:58:04;99228.84;;;32.26;34.85
63903;BME280;50072;50.678;13.938;2022-09-09T12:00:39;99222.72;;;31.31;34.96
63903;BME280;50072;50.678;13.938;2022-09-09T12:03:33;99213.75;;;30.66;37.64
63903;BME280;50072;50.678;13.938;2022-09-09T12:06:19;99222.03;;;30.66;34.46
63903;BME280;50072;50.678;13.938;2022-09-09T12:08:53;99210.28;;;29.58;37.21
63903;BME280;50072;50.678;13.938;2022-09-09T12:11:29;99215.63;;;28.68;38.00
63903;BME280;50072;50.678;13.938;2022-09-09T12:13:58;99212.63;;;28.61;39.18
63903;BME280;50072;50.678;13.938;2022-09-09T12:16:31;99212.22;;;28.39;38.02
63903;BME280;50072;50.678;13.938;2022-09-09T12:19:13;99214.09;;;28.82;38.80
63903;BME280;50072;50.678;13.938;2022-09-09T12:22:08;99209.00;;;28.95;37.71
63903;BME280;50072;50.678;13.938;2022-09-09T12:30:29;99206.00;;;29.81;36.77
63903;BME280;50072;50.678;13.938;2022-09-09T12:33:23;99202.72;;;29.52;35.17
63903;BME280;50072;50.678;13.938;2022-09-09T12:35:54;99199.09;;;29.27;35.72
63903;BME280;50072;50.678;13.938;2022-09-09T12:38:27;99193.59;;;28.68;36.99
63903;BME280;50072;50.678;13.938;2022-09-09T12:40:56;99198.50;;;28.21;38.46
63903;BME280;50072;50.678;13.938;2022-09-09T12:43:24;99185.06;;;28.53;36.49
63903;BME280;50072;50.678;13.938;2022-09-09T12:45:53;99190.81;;;27.99;37.88
63903;BME280;50072;50.678;13.938;2022-09-09T12:48:32;99184.19;;;28.10;38.09
63903;BME280;50072;50.678;13.938;2022-09-09T12:50:58;99171.59;;;28.33;37.82
63903;BME280;50072;50.678;13.938;2022-09-09T12:53:46;99179.19;;;28.39;36.33
63903;BME280;50072;50.678;13.938;2022-09-09T12:56:19;99184.06;;;28.54;36.34
63903;BME280;50072;50.678;13.938;2022-09-09T12:58:49;99182.94;;;28.38;37.25
63903;BME280;50072;50.678;13.938;2022-09-09T13:03:49;99174.47;;;28.23;37.71
63903;BME280;50072;50.678;13.938;2022-09-09T13:06:21;99168.88;;;28.50;37.69
63903;BME280;50072;50.678;13.938;2022-09-09T13:08:50;99167.94;;;28.67;36.99
63903;BME280;50072;50.678;13.938;2022-09-09T13:11:34;99171.03;;;28.64;37.41
63903;BME280;50072;50.678;13.938;2022-09-09T13:14:01;99160.88;;;28.22;39.02
63903;BME280;50072;50.678;13.938;2022-09-09T13:16:33;99157.75;;;27.64;39.39
63903;BME280;50072;50.678;13.938;2022-09-09T13:19:10;99151.66;;;27.79;38.73
63903;BME280;50072;50.678;13.938;2022-09-09T13:21:40;99153.09;;;27.91;39.33
63903;BME280;50072;50.678;13.938;2022-09-09T13:24:21;99142.25;;;27.63;37.90
63903;BME280;50072;50.678;13.938;2022-09-09T13:27:25;99145.34;;;27.60;36.78
63903;BME280;50072;50.678;13.938;2022-09-09T13:29:51;99142.44;;;27.88;37.89
63903;BME280;50072;50.678;13.938;2022-09-09T13:32:21;99156.25;;;27.96;35.12
63903;BME280;50072;50.678;13.938;2022-09-09T13:34:52;99157.56;;;28.18;36.89
63903;BME280;50072;50.678;13.938;2022-09-09T13:37:35;99144.72;;;28.27;34.94
63903;BME280;50072;50.678;13.938;2022-09-09T13:40:03;99152.78;;;27.94;35.25
63903;BME280;50072;50.678;13.938;2022-09-09T13:42:32;99157.88;;;27.18;36.93
63903;BME280;50072;50.678;13.938;2022-09-09T13:45:00;99152.75;;;26.69;37.64
63903;BME280;50072;50.678;13.938;2022-09-09T13:47:35;99148.06;;;26.24;37.65
63903;BME280;50072;50.678;13.938;2022-09-09T13:50:21;99145.13;;;26.35;37.56
63903;BME280;50072;50.678;13.938;2022-09-09T13:52:47;99140.50;;;26.82;38.22
63903;BME280;50072;50.678;13.938;2022-09-09T13:55:14;99149.78;;;27.17;38.16
63903;BME280;50072;50.678;13.938;2022-09-09T13:57:53;99135.81;;;27.10;35.51
63903;BME280;50072;50.678;13.938;2022-09-09T14:00:20;99140.69;;;27.16;37.20
63903;BME280;50072;50.678;13.938;2022-09-09T14:02:47;99135.91;;;27.36;36.57
63903;BME280;50072;50.678;13.938;2022-09-09T14:05:13;99129.84;;;27.59;36.95
63903;BME280;50072;50.678;13.938;2022-09-09T14:07:40;99135.94;;;27.45;35.87
63903;BME280;50072;50.678;13.938;2022-09-09T14:10:07;99132.22;;;27.72;36.24
63903;BME280;50072;50.678;13.938;2022-09-09T14:12:33;99126.81;;;27.62;36.88
63903;BME280;50072;50.678;13.938;2022-09-09T14:14:59;99121.78;;;27.58;39.10
63903;BME280;50072;50.678;13.938;2022-09-09T14:17:25;99117.22;;;27.66;39.62
63903;BME280;50072;50.678;13.938;2022-09-09T14:19:55;99117.31;;;27.12;40.73
63903;BME280;50072;50.678;13.938;2022-09-09T14:22:22;99116.06;;;27.07;40.42
63903;BME280;50072;50.678;13.938;2022-09-09T14:24:48;99114.78;;;27.37;39.34
63903;BME280;50072;50.678;13.938;2022-09-09T14:27:14;99125.78;;;27.01;38.70
63903;BME280;50072;50.678;13.938;2022-09-09T14:29:40;99111.38;;;26.53;38.76
63903;BME280;50072;50.678;13.938;2022-09-09T14:32:06;99110.78;;;26.31;38.85
63903;BME280;50072;50.678;13.938;2022-09-09T14:34:32;99109.22;;;26.01;39.78
63903;BME280;50072;50.678;13.938;2022-09-09T14:37:01;99103.00;;;25.89;40.25
63903;BME280;50072;50.678;13.938;2022-09-09T14:39:26;99103.28;;;25.58;40.48
63903;BME280;50072;50.678;13.938;2022-09-09T14:41:52;99105.13;;;25.67;40.24
63903;BME280;50072;50.678;13.938;2022-09-09T14:44:18;99114.16;;;25.78;40.97
63903;BME280;50072;50.678;13.938;2022-09-09T14:46:44;99112.19;;;25.70;42.24
63903;BME280;50072;50.678;13.938;2022-09-09T14:49:10;99107.50;;;25.43;43.33
63903;BME280;50072;50.678;13.938;2022-09-09T14:51:38;99120.34;;;25.23;44.23
63903;BME280;50072;50.678;13.938;2022-09-09T14:54:03;99119.19;;;24.96;45.22
63903;BME280;50072;50.678;13.938;2022-09-09T14:56:31;99126.66;;;24.94;46.06
63903;BME280;50072;50.678;13.938;2022-09-09T14:59:00;99125.38;;;24.69;46.38
63903;BME280;50072;50.678;13.938;2022-09-09T15:01:27;99126.72;;;24.43;47.28
63903;BME280;50072;50.678;13.938;2022-09-09T15:03:58;99124.53;;;24.27;47.26
63903;BME280;50072;50.678;13.938;2022-09-09T15:06:27;99116.56;;;24.05;47.68
63903;BME280;50072;50.678;13.938;2022-09-09T15:08:53;99114.34;;;23.89;48.38
63903;BME280;50072;50.678;13.938;2022-09-09T15:11:20;99116.53;;;23.74;48.84